Time;durP1;ratioP1;P1;durP2;ratioP2;P2;SDS_P1;SDS_P2;PMS_P1;PMS_P2;Temp;Humidity;BMP_temperature;BMP_pressure;BME280_temperature;BME280_humidity;BME280_pressure;Samples;Min_cycle;Max_cycle;Signal;HPM_P1;HPM_P2
2022/07/14 00:01:04;;;;;;;25.23;23.85;;;;;;;23.60;41.67;97004.25;5073019;28;20215;-68
2022/07/14 00:03:30;;;;;;;30.58;29.00;;;;;;;23.56;42.16;97000.59;5071771;28;20269;-68
2022/07/14 00:05:55;;;;;;;31.45;29.83;;;;;;;23.63;41.61;96999.06;5073113;28;20641;-68
2022/07/14 00:08:20;;;;;;;39.47;37.47;;;;;;;23.59;41.95;96997.31;5072656;28;20181;-68
2022/07/14 00:10:46;;;;;;;41.78;39.65;;;;;;;23.60;41.82;96988.19;5074129;28;20689;-67
2022/07/14 00:13:11;;;;;;;51.53;48.85;;;;;;;23.50;42.58;96989.22;5076570;28;20185;-67
2022/07/14 00:15:37;;;;;;;85.00;80.68;;;;;;;23.55;42.16;96993.66;5076813;28;20197;-68
2022/07/14 00:18:03;;;;;;;125.47;119.05;;;;;;;23.36;42.93;97001.84;5076766;28;20170;-68
2022/07/14 00:20:28;;;;;;;195.43;185.52;;;;;;;23.36;42.98;96996.47;5058551;28;20586;-67
2022/07/14 00:22:57;;;;;;;223.23;212.30;;;;;;;23.32;43.36;96998.19;5076914;28;20182;-68
2022/07/14 00:25:26;;;;;;;256.65;244.13;;;;;;;23.30;42.78;96988.88;5077077;28;20178;-68
2022/07/14 00:27:52;;;;;;;239.93;227.95;;;;;;;23.30;42.85;96986.19;5076539;28;20631;-67
2022/07/14 00:30:18;;;;;;;274.73;261.23;;;;;;;23.37;42.66;96983.91;5076411;28;20193;-68
2022/07/14 00:32:43;;;;;;;322.65;306.60;;;;;;;23.31;42.84;96985.09;5076410;28;20552;-67
2022/07/14 00:35:09;;;;;;;324.23;308.00;;;;;;;23.16;43.20;96981.69;5076191;28;20307;-67
2022/07/14 00:37:34;;;;;;;352.73;335.15;;;;;;;23.23;42.82;96972.47;5076145;28;20177;-68
2022/07/14 00:40:04;;;;;;;338.27;321.30;;;;;;;23.30;42.54;96975.50;5076469;28;20181;-67
2022/07/14 00:42:35;;;;;;;293.33;278.67;;;;;;;23.26;42.58;96967.28;5076216;28;20541;-67
2022/07/14 00:45:03;;;;;;;250.90;238.52;;;;;;;23.32;42.22;96978.66;5076083;28;20212;-68
2022/07/14 00:47:29;;;;;;;220.95;209.98;;;;;;;23.28;42.07;96967.00;5076068;28;20260;-68
2022/07/14 00:49:56;;;;;;;148.80;141.15;;;;;;;23.37;41.26;96962.50;5075838;28;20216;-68
2022/07/14 00:52:24;;;;;;;113.57;108.03;;;;;;;23.35;41.31;96970.81;5076065;28;20181;-68
2022/07/14 00:54:49;;;;;;;70.35;66.68;;;;;;;23.36;40.97;96974.28;5075959;28;20646;-69
2022/07/14 00:57:15;;;;;;;73.90;70.13;;;;;;;23.23;41.83;96975.94;5075801;28;20254;-68
2022/07/14 00:59:41;;;;;;;90.38;85.90;;;;;;;23.27;41.72;96968.09;5076227;28;20657;-68
2022/07/14 01:02:06;;;;;;;143.35;136.30;;;;;;;23.10;42.54;96976.75;5075207;28;20515;-67
2022/07/14 01:04:31;;;;;;;295.90;281.48;;;;;;;22.93;43.55;96976.59;5075718;28;20185;-68
2022/07/14 01:06:57;;;;;;;338.60;321.73;;;;;;;22.90;43.01;96977.22;5076136;28;20201;-68
2022/07/14 01:09:22;;;;;;;532.55;504.40;;;;;;;22.82;44.26;96973.38;5076429;28;20584;-68
2022/07/14 01:11:47;;;;;;;553.42;523.83;;;;;;;22.63;44.14;96978.00;5057699;28;20302;-69
2022/07/14 01:14:13;;;;;;;538.50;509.40;;;;;;;22.67;43.76;96977.13;5075620;28;20261;-69
2022/07/14 01:16:38;;;;;;;543.10;514.08;;;;;;;22.68;43.43;96980.59;5075635;28;20201;-68
2022/07/14 01:19:03;;;;;;;555.63;525.63;;;;;;;22.66;43.81;96980.09;5075395;28;20184;-67
2022/07/14 01:21:29;;;;;;;562.58;532.05;;;;;;;22.56;43.99;96985.66;5075511;28;20184;-67
2022/07/14 01:23:54;;;;;;;564.83;533.88;;;;;;;22.45;44.35;96981.59;5075145;28;20268;-69
2022/07/14 01:26:19;;;;;;;509.27;481.38;;;;;;;22.24;45.71;96981.97;5075311;28;20548;-69
2022/07/14 01:28:45;;;;;;;392.33;371.67;;;;;;;22.14;46.52;96981.38;5075384;28;20284;-68
2022/07/14 01:31:11;;;;;;;311.25;295.55;;;;;;;22.04;46.91;96976.22;5075346;28;20173;-68
2022/07/14 01:33:36;;;;;;;312.67;297.02;;;;;;;22.08;47.28;96974.53;5074935;28;20637;-67
2022/07/14 01:36:02;;;;;;;362.60;344.13;;;;;;;22.04;47.22;96978.91;5057144;28;20209;-68
2022/07/14 01:38:27;;;;;;;357.30;339.38;;;;;;;21.97;47.51;96980.09;5057234;28;20526;-68
2022/07/14 01:40:52;;;;;;;285.58;271.65;;;;;;;22.14;44.89;96970.69;5075030;28;20209;-68
2022/07/14 01:43:18;;;;;;;306.58;291.55;;;;;;;22.02;45.57;96976.53;5074764;28;20185;-68
2022/07/14 01:45:43;;;;;;;330.00;313.60;;;;;;;21.77;47.35;96972.41;5057112;28;20199;-68
2022/07/14 01:48:08;;;;;;;241.93;230.25;;;;;;;21.43;48.71;96974.56;5075096;28;20177;-68
2022/07/14 01:50:34;;;;;;;157.98;150.18;;;;;;;21.53;48.58;96972.53;5075008;28;20605;-68
2022/07/14 01:52:59;;;;;;;74.78;71.03;;;;;;;21.56;48.86;96969.31;5075234;28;20697;-69
2022/07/14 01:55:24;;;;;;;45.03;42.78;;;;;;;21.43;48.88;96972.72;5073909;28;20236;-68
2022/07/14 01:57:50;;;;;;;26.75;25.20;;;;;;;21.48;48.77;96971.81;5074291;28;20185;-69
2022/07/14 02:00:15;;;;;;;23.10;21.88;;;;;;;21.51;49.49;96973.94;5074813;28;20227;-68
2022/07/14 02:02:40;;;;;;;58.88;55.75;;;;;;;21.59;48.93;96959.91;5073898;28;20544;-68
2022/07/14 02:05:09;;;;;;;112.82;107.05;;;;;;;21.38;49.64;96956.78;5074484;28;20182;-67
2022/07/14 02:07:35;;;;;;;141.02;133.75;;;;;;;21.35;48.77;96956.56;5074631;28;20226;-67
2022/07/14 02:12:45;;;;;;;38.38;36.45;;;;;;;21.60;45.27;96958.81;5074594;28;20215;-67
2022/07/14 02:15:10;;;;;;;103.82;98.68;;;;;;;21.70;43.92;96955.19;5056554;28;20606;-67
2022/07/14 02:17:36;;;;;;;211.15;200.63;;;;;;;21.73;43.46;96944.75;5074370;28;20177;-68
2022/07/14 02:20:02;;;;;;;265.52;252.30;;;;;;;21.73;43.08;96943.94;5056489;28;20181;-67
2022/07/14 02:22:28;;;;;;;281.13;267.17;;;;;;;21.74;42.71;96951.63;5074373;28;20302;-67
2022/07/14 02:24:53;;;;;;;279.58;265.70;;;;;;;21.67;43.33;96950.44;5056296;28;20212;-68
2022/07/14 02:27:19;;;;;;;281.10;267.30;;;;;;;21.61;43.23;96949.75;5074204;28;20703;-68
2022/07/14 02:29:44;;;;;;;258.38;245.68;;;;;;;21.56;43.13;96939.16;5073882;28;20208;-67
2022/07/14 02:32:10;;;;;;;250.50;237.98;;;;;;;21.60;43.06;96944.69;5055990;28;20182;-67
2022/07/14 02:34:35;;;;;;;255.98;243.48;;;;;;;21.50;43.78;96945.66;5073139;28;20512;-67
2022/07/14 02:37:01;;;;;;;268.17;255.05;;;;;;;21.48;43.58;96951.28;5073919;28;20218;-68
2022/07/14 02:39:26;;;;;;;269.73;256.42;;;;;;;21.43;43.74;96945.25;5073828;28;20251;-68
2022/07/14 02:41:51;;;;;;;270.92;257.90;;;;;;;21.30;44.53;96944.09;5073707;28;20618;-68
2022/07/14 02:44:17;;;;;;;148.55;141.18;;;;;;;21.23;46.41;96946.38;5073940;28;20177;-68
2022/07/14 02:46:42;;;;;;;28.67;27.20;;;;;;;21.03;47.06;96947.41;5073982;28;20272;-67
2022/07/14 02:49:08;;;;;;;20.52;19.40;;;;;;;20.87;47.82;96945.25;5073969;28;20184;-67
2022/07/14 02:51:33;;;;;;;19.30;18.30;;;;;;;20.71;48.12;96947.34;5073387;28;20188;-67
2022/07/14 02:53:59;;;;;;;19.35;18.15;;;;;;;20.55;48.31;96948.63;5073259;28;20231;-67
2022/07/14 02:56:25;;;;;;;21.88;20.63;;;;;;;20.56;48.23;96945.66;5072976;28;20205;-67
2022/07/14 02:58:51;;;;;;;24.63;23.33;;;;;;;20.67;46.79;96944.44;5073741;28;20262;-67
2022/07/14 03:01:17;;;;;;;20.95;19.85;;;;;;;20.79;46.33;96943.25;5072800;28;20188;-72
2022/07/14 03:03:42;;;;;;;19.63;18.52;;;;;;;20.78;46.20;96939.81;5073053;28;20713;-67
2022/07/14 03:06:09;;;;;;;17.73;16.73;;;;;;;20.94;45.54;96941.16;5073060;28;20216;-67
2022/07/14 03:08:34;;;;;;;22.30;20.42;;;;;;;20.98;45.51;96939.50;5073408;28;20178;-67
2022/07/14 03:10:59;;;;;;;20.30;19.10;;;;;;;20.99;45.28;96941.09;5073508;28;20634;-67
2022/07/14 03:13:25;;;;;;;20.58;19.58;;;;;;;20.95;45.77;96944.63;5073448;28;20616;-67
2022/07/14 03:15:50;;;;;;;26.02;24.58;;;;;;;21.04;46.37;96949.00;5073446;28;20692;-69
2022/07/14 03:18:15;;;;;;;194.68;185.05;;;;;;;20.97;49.20;96950.44;5073450;28;20597;-67
2022/07/14 03:20:41;;;;;;;117.28;111.35;;;;;;;20.67;52.83;96954.34;5073620;28;20181;-67
2022/07/14 03:23:06;;;;;;;63.20;60.00;;;;;;;20.52;54.73;96938.53;5073282;28;20660;-68
2022/07/14 03:25:32;;;;;;;35.80;33.75;;;;;;;20.38;56.16;96932.34;5073037;28;20192;-68
2022/07/14 03:27:57;;;;;;;139.88;132.45;;;;;;;20.27;57.20;96940.41;5073076;28;20184;-67
2022/07/14 03:30:22;;;;;;;250.45;237.07;;;;;;;20.18;58.62;96926.13;5055136;28;20181;-67
2022/07/14 03:32:48;;;;;;;219.35;207.05;;;;;;;20.05;59.14;96928.69;5072825;28;20189;-67
2022/07/14 03:35:13;;;;;;;67.63;63.90;;;;;;;20.03;58.55;96928.19;5072610;28;20213;-68
2022/07/14 03:37:39;;;;;;;207.68;196.13;;;;;;;20.01;57.84;96930.31;5054998;28;20185;-67
2022/07/14 03:40:06;;;;;;;267.83;253.13;;;;;;;20.21;56.49;96925.59;5073356;28;20181;-68
2022/07/14 03:42:32;;;;;;;155.50;146.95;;;;;;;20.32;55.24;96934.28;5073032;28;20185;-67
2022/07/14 03:44:58;;;;;;;106.95;100.97;;;;;;;20.39;54.36;96931.25;5072393;28;20273;-68
2022/07/14 03:47:24;;;;;;;236.80;224.90;;;;;;;20.48;53.36;96924.22;5073382;28;20177;-68
2022/07/14 03:49:49;;;;;;;472.00;446.58;;;;;;;20.47;53.14;96933.28;5072730;28;20553;-67
2022/07/14 03:52:15;;;;;;;516.95;488.73;;;;;;;20.80;52.20;96937.63;5072887;28;20609;-68
2022/07/14 03:54:45;;;;;;;522.55;493.90;;;;;;;21.02;52.14;96937.84;5072668;28;20228;-68
2022/07/14 03:57:11;;;;;;;479.77;453.83;;;;;;;21.21;52.24;96937.06;5072349;28;20236;-68
2022/07/14 03:59:40;;;;;;;319.90;303.30;;;;;;;21.24;52.40;96931.94;5072785;28;20188;-67
2022/07/14 04:02:15;;;;;;;312.42;296.00;;;;;;;21.29;53.58;96933.75;5073063;28;20189;-68
2022/07/14 04:04:40;;;;;;;213.00;202.00;;;;;;;21.36;53.91;96934.94;5072768;28;20226;-67
2022/07/14 04:07:07;;;;;;;107.25;101.88;;;;;;;21.56;53.84;96929.28;5072963;28;20269;-68
2022/07/14 04:09:33;;;;;;;71.78;67.85;;;;;;;21.37;54.23;96933.88;5072832;28;20331;-68
2022/07/14 04:11:58;;;;;;;92.75;88.00;;;;;;;21.61;53.96;96928.41;5072972;28;20208;-67
2022/07/14 04:14:24;;;;;;;114.35;108.57;;;;;;;21.84;53.18;96922.13;5072867;28;20181;-68
2022/07/14 04:16:50;;;;;;;86.45;82.10;;;;;;;22.15;52.85;96932.25;5072753;28;20292;-67
2022/07/14 04:19:15;;;;;;;88.50;84.07;;;;;;;21.96;53.13;96924.31;5073370;28;20185;-67
2022/07/14 04:21:41;;;;;;;75.63;71.53;;;;;;;22.27;51.84;96929.88;5072550;28;20182;-68
2022/07/14 04:24:06;;;;;;;62.17;58.95;;;;;;;21.68;53.71;96933.38;5072556;28;20268;-68
2022/07/14 04:26:32;;;;;;;60.08;56.78;;;;;;;21.60;53.84;96934.81;5072608;28;20246;-68
2022/07/14 04:28:58;;;;;;;67.10;63.45;;;;;;;21.09;54.96;96942.81;5072530;28;20189;-66
2022/07/14 04:31:23;;;;;;;94.13;89.32;;;;;;;21.08;55.25;96950.00;5072267;28;20188;-67
2022/07/14 04:33:49;;;;;;;31.65;30.00;;;;;;;21.07;56.13;96948.41;5072542;28;20268;-67
2022/07/14 04:36:14;;;;;;;89.72;85.00;;;;;;;21.03;56.35;96950.09;5072607;28;20318;-68
2022/07/14 04:38:40;;;;;;;138.73;131.10;;;;;;;20.98;56.75;96957.38;5072170;28;20280;-67
2022/07/14 04:41:05;;;;;;;258.10;243.85;;;;;;;20.63;57.82;96954.09;5054236;28;20193;-68
2022/07/14 04:43:30;;;;;;;212.18;200.88;;;;;;;20.47;58.09;96946.59;5072576;28;20284;-68
2022/07/14 04:45:56;;;;;;;216.35;204.65;;;;;;;20.22;59.33;96948.47;5072404;28;20192;-67
2022/07/14 04:48:21;;;;;;;199.65;189.10;;;;;;;20.35;58.28;96941.66;5071934;28;20170;-67
2022/07/14 04:53:30;;;;;;;187.38;177.65;;;;;;;21.72;53.57;96945.81;5071735;28;20203;-67
2022/07/14 04:55:57;;;;;;;79.75;75.38;;;;;;;21.93;52.91;96933.69;5071936;28;20206;-67
2022/07/14 04:58:25;;;;;;;115.32;109.63;;;;;;;22.27;50.80;96941.34;5074631;28;20185;-67
2022/07/14 05:00:51;;;;;;;292.25;276.23;;;;;;;22.71;46.35;96943.41;5075241;28;20231;-68
2022/07/14 05:03:16;;;;;;;340.98;323.85;;;;;;;23.30;44.00;96949.53;5075779;28;20190;-68
2022/07/14 05:05:42;;;;;;;228.18;216.73;;;;;;;23.44;43.61;96954.84;5057575;28;20196;-68
2022/07/14 05:08:07;;;;;;;201.38;191.02;;;;;;;23.79;43.17;96953.19;5075578;28;20189;-69
2022/07/14 05:10:33;;;;;;;452.77;429.83;;;;;;;24.16;42.80;96946.59;5075729;28;20203;-69
2022/07/14 05:12:58;;;;;;;396.73;377.63;;;;;;;24.50;41.51;96948.63;5075753;28;20185;-68
2022/07/14 05:15:23;;;;;;;305.17;290.45;;;;;;;24.67;42.12;96949.44;5075470;28;20181;-69
2022/07/14 05:17:49;;;;;;;185.30;176.25;;;;;;;24.89;41.77;96945.09;5075510;28;20181;-69
2022/07/14 05:20:14;;;;;;;173.43;165.07;;;;;;;24.58;42.91;96942.47;5075577;28;20185;-69
2022/07/14 05:22:41;;;;;;;147.05;139.60;;;;;;;25.23;41.69;96932.47;5075447;28;20188;-68
2022/07/14 05:25:12;;;;;;;91.13;86.60;;;;;;;25.23;41.06;96940.53;5074996;28;20181;-69
2022/07/14 05:27:39;;;;;;;93.25;88.57;;;;;;;25.61;39.90;96939.84;5075214;28;20196;-68
2022/07/14 05:30:05;;;;;;;93.72;89.05;;;;;;;25.94;38.91;96937.41;5057306;28;20640;-68
2022/07/14 05:32:31;;;;;;;72.28;68.47;;;;;;;26.04;38.24;96937.81;5074958;28;20220;-69
2022/07/14 05:34:57;;;;;;;100.85;95.88;;;;;;;25.79;39.01;96948.66;5075070;28;20208;-66
2022/07/14 05:37:23;;;;;;;165.48;157.68;;;;;;;26.65;37.60;96942.94;5074958;28;20269;-66
2022/07/14 05:39:48;;;;;;;162.77;154.63;;;;;;;27.01;36.70;96940.50;5075185;28;20268;-62
2022/07/14 05:42:13;;;;;;;160.98;153.27;;;;;;;26.95;37.08;96933.75;5075491;28;20174;-62
2022/07/14 05:44:39;;;;;;;155.70;148.25;;;;;;;27.20;37.57;96935.41;5075121;28;20185;-62
2022/07/14 05:47:04;;;;;;;194.50;185.20;;;;;;;27.44;37.27;96933.94;5075045;28;20177;-63
2022/07/14 05:49:30;;;;;;;62.40;59.33;;;;;;;27.11;40.87;96928.53;5074859;28;20331;-63
2022/07/14 05:51:55;;;;;;;100.45;95.30;;;;;;;27.41;41.49;96924.63;5074525;28;20604;-62
2022/07/14 05:54:20;;;;;;;241.05;229.35;;;;;;;27.23;39.73;96920.53;5074448;28;20304;-63
2022/07/14 05:56:46;;;;;;;167.73;159.63;;;;;;;27.60;39.94;96929.53;5074479;28;20205;-62
2022/07/14 05:59:11;;;;;;;227.73;216.73;;;;;;;27.56;38.72;96929.41;5074353;28;20271;-63
2022/07/14 06:01:36;;;;;;;134.65;128.13;;;;;;;27.72;37.68;96924.19;5073650;28;20213;-62
2022/07/14 06:04:02;;;;;;;106.95;101.70;;;;;;;27.24;37.95;96930.19;5074535;28;20189;-63
2022/07/14 06:06:27;;;;;;;139.90;133.00;;;;;;;27.48;38.24;96926.78;5074486;28;20196;-63
2022/07/14 06:08:52;;;;;;;168.98;160.95;;;;;;;27.36;39.08;96930.22;5074319;28;20602;-63
2022/07/14 06:11:18;;;;;;;267.50;254.95;;;;;;;27.67;40.29;96933.28;5074717;28;20201;-63
2022/07/14 06:13:45;;;;;;;177.13;168.90;;;;;;;27.49;41.14;96939.13;5074615;28;20184;-62
2022/07/14 06:16:12;;;;;;;57.35;54.15;;;;;;;27.65;41.33;96935.50;5074327;28;20227;-63
2022/07/14 06:18:37;;;;;;;137.88;131.02;;;;;;;27.91;39.86;96931.75;5074291;28;20205;-63
2022/07/14 06:21:09;;;;;;;235.90;224.70;;;;;;;28.01;38.37;96926.72;5074257;28;20641;-63
2022/07/14 06:23:35;;;;;;;163.77;155.65;;;;;;;28.64;36.87;96927.19;5074158;28;20177;-63
2022/07/14 06:26:09;;;;;;;166.93;158.73;;;;;;;28.73;36.60;96930.56;5074253;28;20185;-63
2022/07/14 06:28:35;;;;;;;161.35;153.40;;;;;;;28.33;36.66;96924.28;5074049;28;20173;-62
2022/07/14 06:31:00;;;;;;;151.60;143.77;;;;;;;28.41;36.11;96932.25;5073716;28;20200;-63
2022/07/14 06:33:25;;;;;;;115.63;109.57;;;;;;;28.31;36.53;96926.53;5073947;28;20193;-63
2022/07/14 06:35:51;;;;;;;155.70;147.85;;;;;;;27.67;38.77;96927.09;5074218;28;20212;-63
2022/07/14 06:38:17;;;;;;;242.02;230.30;;;;;;;27.74;39.04;96930.03;5074180;28;20192;-63
2022/07/14 06:40:42;;;;;;;266.73;253.90;;;;;;;27.63;39.34;96921.59;5073968;28;20177;-63
2022/07/14 06:43:07;;;;;;;267.75;254.48;;;;;;;28.32;38.49;96918.09;5074326;28;20220;-63
2022/07/14 06:45:34;;;;;;;260.25;247.88;;;;;;;28.16;38.01;96908.31;5073696;28;20193;-63
2022/07/14 06:47:59;;;;;;;234.88;223.32;;;;;;;28.01;38.31;96913.22;5073338;28;20705;-63
2022/07/14 06:50:24;;;;;;;230.85;218.85;;;;;;;28.31;38.37;96908.41;5073844;28;20276;-63
2022/07/14 06:52:50;;;;;;;234.65;222.98;;;;;;;28.66;37.36;96908.72;5055920;28;20173;-63
2022/07/14 06:55:15;;;;;;;206.93;196.57;;;;;;;28.56;36.99;96911.91;5054975;28;20701;-64
2022/07/14 06:57:41;;;;;;;275.60;261.98;;;;;;;28.42;37.86;96914.94;5073366;28;20626;-63
2022/07/14 07:00:09;;;;;;;269.38;256.23;;;;;;;28.32;38.13;96909.22;5073545;28;20270;-63
2022/07/14 07:02:37;;;;;;;269.52;255.43;;;;;;;28.78;37.40;96902.53;5072639;28;20630;-62
2022/07/14 07:07:49;;;;;;;204.50;193.80;;;;;;;29.08;36.23;96913.84;5073223;28;20588;-63
2022/07/14 07:10:14;;;;;;;180.77;171.80;;;;;;;29.42;35.66;96907.88;5073212;28;20260;-63
2022/07/14 07:12:39;;;;;;;200.10;190.18;;;;;;;29.02;36.90;96913.28;5073697;28;20177;-63
2022/07/14 07:15:05;;;;;;;206.15;195.98;;;;;;;29.26;36.66;96909.69;5073230;28;20177;-63
2022/07/14 07:17:31;;;;;;;206.77;196.68;;;;;;;29.29;36.51;96907.09;5055335;28;20365;-64
2022/07/14 07:19:56;;;;;;;205.85;195.38;;;;;;;29.74;35.73;96914.09;5072738;28;20307;-63
2022/07/14 07:22:21;;;;;;;188.70;179.40;;;;;;;29.84;35.11;96901.97;5073111;28;20358;-64
2022/07/14 07:24:47;;;;;;;180.48;171.40;;;;;;;29.45;36.23;96909.88;5073242;28;20196;-63
2022/07/14 07:27:12;;;;;;;182.85;173.77;;;;;;;29.46;36.64;96905.25;5073176;28;20189;-63
2022/07/14 07:29:37;;;;;;;163.15;154.80;;;;;;;30.06;35.26;96907.59;5054929;28;20968;-63
2022/07/14 07:32:03;;;;;;;118.43;112.32;;;;;;;30.79;34.20;96898.84;5073313;28;20254;-63
2022/07/14 07:34:28;;;;;;;97.22;91.43;;;;;;;30.78;34.14;96897.28;5073001;28;20181;-64
2022/07/14 07:36:54;;;;;;;69.72;65.93;;;;;;;30.25;35.53;96904.19;5072833;28;20217;-64
2022/07/14 07:39:19;;;;;;;73.25;68.65;;;;;;;30.60;35.03;96896.09;5073180;28;20530;-65
2022/07/14 07:41:45;;;;;;;83.47;79.22;;;;;;;30.13;36.08;96893.47;5073201;28;20174;-64
2022/07/14 07:44:10;;;;;;;119.25;113.28;;;;;;;29.97;36.18;96895.41;5073175;28;20295;-64
2022/07/14 07:46:36;;;;;;;132.65;125.72;;;;;;;29.97;35.95;96895.41;5073259;28;20239;-64
2022/07/14 07:49:01;;;;;;;109.30;103.47;;;;;;;30.08;35.49;96886.41;5073244;28;20181;-64
2022/07/14 07:51:26;;;;;;;129.68;122.60;;;;;;;29.81;36.78;96886.47;5072967;28;20177;-65
2022/07/14 07:53:52;;;;;;;144.38;136.90;;;;;;;29.61;37.07;96880.97;5072246;28;20228;-65
2022/07/14 07:56:17;;;;;;;164.43;156.02;;;;;;;30.27;36.60;96877.56;5072127;28;20237;-64
2022/07/14 07:58:43;;;;;;;164.05;155.68;;;;;;;30.74;36.10;96882.91;5072822;28;20173;-64
2022/07/14 08:01:09;;;;;;;192.68;183.00;;;;;;;31.07;36.20;96870.81;5072193;28;20644;-64
2022/07/14 08:03:34;;;;;;;250.20;238.18;;;;;;;31.09;36.49;96879.38;5072478;28;20607;-65
2022/07/14 08:06:00;;;;;;;240.57;228.63;;;;;;;30.80;36.93;96876.06;5073003;28;20216;-65
2022/07/14 08:08:25;;;;;;;333.67;316.63;;;;;;;30.85;36.91;96869.56;5072541;28;20544;-64
2022/07/14 08:10:50;;;;;;;351.17;333.67;;;;;;;31.18;36.56;96864.47;5072785;28;20234;-65
2022/07/14 08:13:16;;;;;;;316.30;300.52;;;;;;;31.30;36.41;96863.53;5072872;28;20276;-64
2022/07/14 08:15:42;;;;;;;257.70;244.63;;;;;;;31.14;36.17;96860.13;5072947;28;20307;-64
2022/07/14 08:18:07;;;;;;;205.82;195.68;;;;;;;31.14;35.88;96857.41;5072765;28;20181;-64
2022/07/14 08:20:33;;;;;;;180.73;171.40;;;;;;;31.33;35.71;96855.44;5072729;28;20178;-65
2022/07/14 08:22:59;;;;;;;202.20;192.23;;;;;;;31.15;36.18;96854.34;5072556;28;20181;-64
2022/07/14 08:25:24;;;;;;;254.82;241.50;;;;;;;30.96;36.76;96848.91;5072558;28;20219;-64
2022/07/14 08:27:51;;;;;;;355.38;337.83;;;;;;;31.04;36.75;96842.50;5054628;28;20184;-64
2022/07/14 08:30:16;;;;;;;610.65;578.33;;;;;;;30.77;37.34;96843.50;5072238;28;20197;-64
2022/07/14 08:32:49;;;;;;;797.67;752.22;;;;;;;30.65;37.78;96844.41;5075567;28;20189;-64
2022/07/14 08:35:16;;;;;;;980.15;913.85;;;;;;;30.17;39.20;96840.25;5076242;28;20182;-64
2022/07/14 08:37:42;;;;;;;929.50;868.35;;;;;;;30.15;39.22;96837.88;5076226;28;20188;-63
2022/07/14 08:40:11;;;;;;;830.47;780.00;;;;;;;30.03;38.96;96840.72;5076296;28;20185;-64
2022/07/14 08:42:38;;;;;;;771.67;727.45;;;;;;;29.70;39.76;96841.03;5076363;28;20529;-64
2022/07/14 08:45:15;;;;;;;643.28;609.70;;;;;;;29.96;39.51;96837.84;5076264;28;20174;-64
2022/07/14 08:47:41;;;;;;;567.75;539.20;;;;;;;29.52;39.74;96830.94;5075760;28;20535;-64
2022/07/14 08:50:10;;;;;;;466.00;443.60;;;;;;;29.36;40.55;96827.44;5075812;28;20543;-64
2022/07/14 08:52:36;;;;;;;447.08;425.50;;;;;;;29.71;39.08;96822.91;5076078;28;20220;-64
2022/07/14 08:55:04;;;;;;;463.30;440.73;;;;;;;29.64;39.31;96826.25;5075254;28;20221;-64
2022/07/14 08:57:30;;;;;;;473.25;450.33;;;;;;;29.64;38.56;96817.34;5075825;28;20251;-64
2022/07/14 08:59:55;;;;;;;554.38;526.17;;;;;;;29.92;37.75;96820.75;5058010;28;20177;-64
2022/07/14 09:02:22;;;;;;;497.13;472.65;;;;;;;30.17;38.49;96818.59;5075065;28;20268;-64
2022/07/14 09:04:48;;;;;;;571.80;541.05;;;;;;;30.49;36.72;96808.50;5075888;28;20188;-64
2022/07/14 09:07:36;;;;;;;285.35;271.38;;;;;;;30.64;33.89;96810.38;5075890;28;20185;-64
2022/07/14 09:10:07;;;;;;;160.43;152.52;;;;;;;30.81;33.64;96807.25;5075989;28;20178;-64
2022/07/14 09:12:34;;;;;;;82.50;78.25;;;;;;;30.66;32.40;96805.38;5075804;28;20183;-64
2022/07/14 09:18:28;;;;;;;68.38;64.70;;;;;;;31.24;31.58;96808.84;5075411;28;20347;-64
2022/07/14 09:20:57;;;;;;;60.58;57.20;;;;;;;31.37;30.92;96802.13;5064520;28;20193;-65
2022/07/14 09:23:31;;;;;;;47.47;44.85;;;;;;;31.27;30.82;96805.41;5075380;28;20177;-64
2022/07/14 09:26:18;;;;;;;62.25;59.03;;;;;;;31.60;31.30;96799.44;5075398;28;20305;-64
2022/07/14 09:28:46;;;;;;;38.15;36.05;;;;;;;31.76;28.86;96791.97;5075118;28;20633;-64
2022/07/14 09:31:21;;;;;;;54.95;52.22;;;;;;;31.71;28.79;96796.91;5075399;28;20536;-65
2022/07/14 09:33:47;;;;;;;81.93;77.85;;;;;;;31.84;29.02;96787.41;5075324;28;20177;-64
2022/07/14 09:36:30;;;;;;;109.22;103.88;;;;;;;31.99;28.50;96786.47;5074873;28;20571;-64
2022/07/14 09:39:07;;;;;;;110.18;104.78;;;;;;;32.02;28.02;96777.63;5075324;28;20176;-64
2022/07/14 09:41:36;;;;;;;73.70;70.00;;;;;;;31.98;26.57;96771.38;5075119;28;20184;-64
2022/07/14 09:44:13;;;;;;;52.17;49.38;;;;;;;32.06;26.04;96777.66;5074544;28;20182;-66
2022/07/14 09:46:48;;;;;;;35.25;32.78;;;;;;;32.01;25.56;96770.63;5075060;28;20185;-64
2022/07/14 09:49:15;;;;;;;34.30;32.33;;;;;;;31.81;26.20;96776.53;5074985;28;20177;-64
2022/07/14 09:51:57;;;;;;;26.85;25.42;;;;;;;31.88;26.14;96771.97;5074943;28;20538;-64
2022/07/14 09:54:49;;;;;;;19.20;18.13;;;;;;;31.99;25.81;96777.59;5074506;28;20221;-64
2022/07/14 09:57:14;;;;;;;19.58;17.92;;;;;;;31.82;26.02;96769.97;5069826;28;20213;-64
2022/07/14 09:59:51;;;;;;;13.20;12.50;;;;;;;31.94;25.62;96764.31;5074783;28;20268;-64
2022/07/14 10:02:21;;;;;;;9.77;8.60;;;;;;;32.02;24.85;96753.22;5036696;28;20181;-63
2022/07/14 10:04:48;;;;;;;11.55;10.85;;;;;;;32.00;24.57;96752.00;5054636;28;20635;-64
2022/07/14 10:07:15;;;;;;;14.27;13.45;;;;;;;32.14;24.27;96754.94;5054500;28;20276;-63
2022/07/14 10:09:55;;;;;;;26.85;25.48;;;;;;;32.06;24.54;96751.31;5054497;28;20178;-64
2022/07/14 10:12:23;;;;;;;26.27;24.88;;;;;;;32.00;24.39;96749.28;5054710;28;20188;-64
2022/07/14 10:14:50;;;;;;;32.17;30.55;;;;;;;31.94;24.55;96751.53;5054711;28;20688;-63
2022/07/14 10:17:16;;;;;;;37.95;36.03;;;;;;;31.96;24.00;96743.81;5054549;28;20208;-63
2022/07/14 10:19:44;;;;;;;41.22;39.03;;;;;;;31.71;24.94;96750.81;5054359;28;20243;-63
2022/07/14 10:22:09;;;;;;;34.88;32.95;;;;;;;32.10;24.34;96754.84;5054284;28;20174;-63
2022/07/14 10:24:35;;;;;;;46.67;44.35;;;;;;;31.83;24.20;96741.69;5054243;28;20610;-64
2022/07/14 10:27:01;;;;;;;52.92;50.00;;;;;;;31.84;24.70;96746.75;5054587;28;20193;-63
2022/07/14 10:29:28;;;;;;;44.22;41.72;;;;;;;32.01;24.82;96740.00;5065929;28;20185;-64
2022/07/14 10:32:02;;;;;;;28.75;27.20;;;;;;;32.14;23.66;96735.97;5074235;28;20177;-63
2022/07/14 10:34:46;;;;;;;17.42;16.52;;;;;;;31.76;23.47;96735.03;5074318;28;20184;-64
2022/07/14 10:37:19;;;;;;;20.17;19.02;;;;;;;31.94;23.79;96726.34;5074116;28;20201;-63
2022/07/14 10:39:55;;;;;;;16.98;16.02;;;;;;;31.65;24.09;96719.75;5074514;28;20264;-63
2022/07/14 10:42:41;;;;;;;17.05;15.90;;;;;;;31.35;23.57;96717.72;5074152;28;20169;-63
2022/07/14 10:45:07;;;;;;;69.90;66.07;;;;;;;31.49;24.84;96708.25;5073638;28;20166;-64
2022/07/14 10:48:04;;;;;;;49.05;46.55;;;;;;;31.73;24.21;96708.63;5073342;28;20173;-64
2022/07/14 10:50:30;;;;;;;32.50;30.83;;;;;;;31.77;23.80;96695.13;5052857;28;20189;-64
2022/07/14 10:52:55;;;;;;;34.72;32.88;;;;;;;31.85;24.04;96699.50;5073125;28;20576;-63
2022/07/14 10:55:23;;;;;;;24.67;23.27;;;;;;;31.86;23.63;96703.78;5072025;28;20673;-64
2022/07/14 10:58:04;;;;;;;14.88;14.07;;;;;;;31.95;23.52;96703.50;5073134;28;20281;-64
2022/07/14 11:00:44;;;;;;;12.85;12.15;;;;;;;32.00;23.41;96695.03;5073074;28;20181;-63
2022/07/14 11:03:21;;;;;;;8.88;8.38;;;;;;;31.94;23.56;96693.81;5055428;28;20533;-66
2022/07/14 11:06:07;;;;;;;11.65;10.98;;;;;;;32.19;23.27;96698.44;5073535;28;20233;-64
2022/07/14 11:08:36;;;;;;;11.95;11.35;;;;;;;31.86;23.55;96692.16;5072795;28;20211;-63
2022/07/14 11:11:04;;;;;;;12.30;11.55;;;;;;;31.76;23.96;96690.88;5073063;28;20242;-63
2022/07/14 11:13:30;;;;;;;9.13;8.43;;;;;;;31.76;23.57;96685.44;5073108;28;20186;-63
2022/07/14 11:16:02;;;;;;;10.65;10.15;;;;;;;32.11;23.71;96683.19;5073163;28;20346;-63
2022/07/14 11:18:37;;;;;;;7.88;7.55;;;;;;;31.95;23.20;96681.81;5073352;28;20704;-63